Time;durP1;ratioP1;P1;durP2;ratioP2;P2;SDS_P1;SDS_P2;PMS_P1;PMS_P2;Temp;Humidity;BMP_temperature;BMP_pressure;BME280_temperature;BME280_humidity;BME280_pressure;Samples;Min_cycle;Max_cycle;Signal;HPM_P1;HPM_P2
2023/02/07 00:01:58;;;;;;;16.37;10.65;;;;;;;-2.48;70.57;102119.61;1737319;82;21343;-58
2023/02/07 00:05:08;;;;;;;15.98;10.00;;;;;;;-2.48;70.53;102127.65;1804036;79;21673;-59
2023/02/07 00:08:30;;;;;;;14.28;8.60;;;;;;;-2.38;70.56;102119.23;1858497;76;22230;-58
2023/02/07 00:11:52;;;;;;;17.90;10.55;;;;;;;-2.43;70.49;102119.88;1766668;80;21323;-57
2023/02/07 00:15:52;;;;;;;17.95;11.22;;;;;;;-2.47;70.43;102124.91;1769469;79;21722;-59
2023/02/07 00:19:30;;;;;;;19.07;12.07;;;;;;;-2.50;70.41;102126.36;1769193;80;21680;-58
2023/02/07 00:22:57;;;;;;;16.90;10.13;;;;;;;-2.54;70.39;102130.55;1762029;80;21335;-59
2023/02/07 00:26:22;;;;;;;17.60;11.15;;;;;;;-2.57;70.44;102129.30;1764362;79;21376;-57
2023/02/07 00:29:55;;;;;;;15.80;9.90;;;;;;;-2.59;70.47;102124.00;1764133;81;21343;-58
2023/02/07 00:33:12;;;;;;;19.25;10.93;;;;;;;-2.57;70.48;102129.30;1763606;80;21177;-57
2023/02/07 00:36:49;;;;;;;17.85;10.15;;;;;;;-2.61;70.43;102127.18;1770564;80;21257;-58
2023/02/07 00:40:36;;;;;;;18.50;11.70;;;;;;;-2.66;70.40;102118.41;1750800;81;21217;-58
2023/02/07 00:44:29;;;;;;;18.57;11.18;;;;;;;-2.65;70.49;102116.16;1763412;79;21737;-58
2023/02/07 00:47:35;;;;;;;17.50;11.28;;;;;;;-2.69;70.39;102117.17;1774300;80;21268;-60
2023/02/07 00:51:04;;;;;;;17.70;10.85;;;;;;;-2.72;70.44;102116.39;1765435;80;21214;-59
2023/02/07 00:54:15;;;;;;;19.85;11.60;;;;;;;-2.71;70.50;102125.72;1766714;80;21181;-58
2023/02/07 00:57:45;;;;;;;19.70;11.75;;;;;;;-2.76;70.41;102131.72;1719342;80;21370;-58
2023/02/07 01:01:20;;;;;;;16.97;11.50;;;;;;;-2.80;70.37;102127.36;1768092;79;21193;-58
2023/02/07 01:04:46;;;;;;;21.55;12.33;;;;;;;-2.78;70.49;102131.33;1772569;80;21418;-58
2023/02/07 01:08:17;;;;;;;18.40;11.00;;;;;;;-2.72;70.59;102129.79;1761589;80;21683;-58
2023/02/07 01:11:42;;;;;;;17.00;10.38;;;;;;;-2.75;70.51;102132.12;1765746;80;21852;-59
2023/02/07 01:15:03;;;;;;;17.45;10.93;;;;;;;-2.80;70.31;102132.72;1863721;76;20183;-58
2023/02/07 01:18:30;;;;;;;17.07;10.70;;;;;;;-2.89;70.36;102126.33;1790879;79;21193;-58
2023/02/07 01:21:45;;;;;;;19.27;12.18;;;;;;;-2.84;70.55;102131.08;1805729;79;21193;-59
2023/02/07 01:25:29;;;;;;;19.52;11.60;;;;;;;-2.84;70.45;102124.38;1783143;79;21351;-58
2023/02/07 01:29:14;;;;;;;20.52;11.73;;;;;;;-2.83;70.44;102120.77;1884769;76;23050;-58
2023/02/07 01:32:32;;;;;;;17.67;11.10;;;;;;;-2.89;70.45;102120.97;1792503;78;21164;-57
2023/02/07 01:36:01;;;;;;;19.25;12.33;;;;;;;-2.83;70.54;102121.22;1810462;78;21180;-57
2023/02/07 01:43:18;;;;;;;21.00;12.63;;;;;;;-2.90;70.36;102123.22;1878517;76;22218;-58
2023/02/07 01:46:50;;;;;;;20.08;12.28;;;;;;;-3.00;70.34;102111.05;1805793;79;21177;-58
2023/02/07 01:50:25;;;;;;;19.60;12.15;;;;;;;-3.03;70.41;102115.17;1775717;79;21406;-58
2023/02/07 01:53:46;;;;;;;21.00;11.50;;;;;;;-3.01;70.45;102115.13;1805209;79;21323;-58
2023/02/07 01:57:11;;;;;;;17.52;10.98;;;;;;;-3.00;70.53;102107.49;1805458;79;21377;-57
2023/02/07 02:00:41;;;;;;;19.85;11.22;;;;;;;-2.96;70.61;102113.16;1805906;79;21331;-59
2023/02/07 02:04:33;;;;;;;20.00;12.13;;;;;;;-2.96;70.59;102109.13;1805814;79;21224;-58
2023/02/07 02:08:29;;;;;;;18.32;11.05;;;;;;;-2.94;70.58;102114.87;1808048;79;21185;-58
2023/02/07 02:12:19;;;;;;;19.37;11.90;;;;;;;-2.98;70.52;102110.52;1790938;79;21323;-58
2023/02/07 02:15:55;;;;;;;20.90;13.28;;;;;;;-3.00;70.51;102120.44;1805608;79;21784;-59
2023/02/07 02:19:44;;;;;;;19.00;11.65;;;;;;;-2.99;70.54;102115.93;1805441;79;21204;-59
2023/02/07 02:23:21;;;;;;;22.22;11.78;;;;;;;-3.02;70.48;102128.97;1804754;79;21188;-58
2023/02/07 02:27:18;;;;;;;18.55;10.82;;;;;;;-2.99;70.59;102115.48;1809650;79;21343;-59
2023/02/07 02:31:10;;;;;;;20.48;12.07;;;;;;;-2.92;70.62;102127.77;1836479;76;22299;-58
2023/02/07 02:35:02;;;;;;;20.27;11.60;;;;;;;-2.98;70.53;102130.61;1771919;79;21210;-57
2023/02/07 02:38:23;;;;;;;21.95;12.03;;;;;;;-3.05;70.43;102130.41;1773478;80;21531;-57
2023/02/07 02:41:38;;;;;;;20.10;11.97;;;;;;;-3.11;70.47;102130.60;1771836;80;21161;-57
2023/02/07 02:45:15;;;;;;;17.90;11.30;;;;;;;-3.13;70.52;102132.44;1784160;78;21383;-59
2023/02/07 02:48:46;;;;;;;18.40;12.10;;;;;;;-3.11;70.60;102122.09;1781502;79;21240;-58
2023/02/07 02:52:02;;;;;;;21.45;12.88;;;;;;;-3.03;70.75;102119.19;1771836;79;21694;-57
2023/02/07 02:55:22;;;;;;;20.57;12.95;;;;;;;-3.02;70.67;102114.23;1772100;79;21312;-57
2023/02/07 02:59:27;;;;;;;19.52;11.75;;;;;;;-3.08;70.53;102122.47;1771537;79;21394;-58
2023/02/07 03:03:14;;;;;;;19.67;12.10;;;;;;;-3.08;70.63;102117.97;1768091;80;21161;-59
2023/02/07 03:07:19;;;;;;;21.65;12.65;;;;;;;-2.98;70.71;102122.58;1772283;80;21256;-59
2023/02/07 03:10:38;;;;;;;17.50;11.27;;;;;;;-2.93;70.68;102115.77;1796427;79;21244;-58
2023/02/07 03:14:22;;;;;;;21.30;13.38;;;;;;;-2.95;70.56;102105.55;1772142;79;21153;-58
2023/02/07 03:17:56;;;;;;;19.40;12.03;;;;;;;-2.99;70.45;102124.85;1772966;80;21350;-58
2023/02/07 03:21:27;;;;;;;20.60;12.63;;;;;;;-3.04;70.38;102117.42;1771981;79;21370;-58
2023/02/07 03:24:51;;;;;;;21.15;12.63;;;;;;;-3.03;70.52;102120.98;1772185;79;21737;-58
2023/02/07 03:28:10;;;;;;;21.05;12.00;;;;;;;-2.99;70.53;102119.95;1772200;80;21737;-58
2023/02/07 03:31:39;;;;;;;19.50;11.25;;;;;;;-3.02;70.51;102122.27;1782626;80;21201;-58
2023/02/07 03:35:02;;;;;;;22.05;12.73;;;;;;;-3.03;70.57;102116.97;1766825;78;21233;-58
2023/02/07 03:38:34;;;;;;;20.45;12.40;;;;;;;-3.10;70.52;102116.28;1772693;80;21418;-58
2023/02/07 03:41:58;;;;;;;22.35;12.58;;;;;;;-3.13;70.53;102116.38;1771548;80;21346;-57
2023/02/07 03:45:32;;;;;;;20.17;12.45;;;;;;;-3.18;70.46;102113.84;1851156;75;22258;-58
2023/02/07 03:48:52;;;;;;;21.93;13.00;;;;;;;-3.25;70.56;102111.41;1776752;78;21227;-58
2023/02/07 03:52:20;;;;;;;20.95;12.68;;;;;;;-3.31;70.54;102116.47;1754154;78;21339;-58
2023/02/07 03:55:54;;;;;;;23.87;13.28;;;;;;;-3.38;70.50;102121.58;1789727;77;21346;-60
2023/02/07 03:59:21;;;;;;;21.33;12.93;;;;;;;-3.46;70.51;102132.12;1800420;77;21252;-58
2023/02/07 04:02:48;;;;;;;23.98;14.40;;;;;;;-3.61;70.37;102124.06;1801414;76;21950;-58
2023/02/07 04:06:06;;;;;;;25.05;14.15;;;;;;;-3.75;70.38;102126.71;1798647;77;21196;-59
2023/02/07 04:09:28;;;;;;;22.30;13.00;;;;;;;-3.83;70.44;102122.03;1799029;77;21240;-58
2023/02/07 04:12:49;;;;;;;24.23;14.65;;;;;;;-3.80;70.65;102135.33;1859327;76;22293;-58
2023/02/07 04:16:05;;;;;;;24.90;14.30;;;;;;;-3.89;70.52;102144.50;1778483;78;21263;-56
2023/02/07 04:19:39;;;;;;;21.65;12.73;;;;;;;-4.01;70.49;102149.31;1772628;79;21213;-56
2023/02/07 04:23:06;;;;;;;21.20;12.85;;;;;;;-4.04;70.66;102148.05;1772434;79;21805;-56
2023/02/07 04:26:41;;;;;;;24.18;14.33;;;;;;;-4.00;70.74;102145.70;1828120;76;22265;-57
2023/02/07 04:30:01;;;;;;;23.98;13.83;;;;;;;-4.08;70.84;102153.05;1787437;79;21354;-57
2023/02/07 04:33:28;;;;;;;25.65;14.13;;;;;;;-4.06;70.91;102154.75;1763855;80;21476;-56
2023/02/07 04:36:49;;;;;;;26.85;13.60;;;;;;;-4.06;70.89;102152.08;1782814;80;21202;-56
2023/02/07 04:40:08;;;;;;;23.15;13.98;;;;;;;-4.04;70.87;102157.41;1843126;76;22241;-57
2023/02/07 04:43:29;;;;;;;21.30;13.43;;;;;;;-4.11;70.84;102167.84;1770473;80;21615;-57
2023/02/07 04:46:47;;;;;;;26.52;15.08;;;;;;;-4.13;70.85;102165.66;1774127;80;21162;-56
2023/02/07 04:50:13;;;;;;;21.90;12.37;;;;;;;-4.18;70.75;102175.59;1772295;79;21220;-56
2023/02/07 04:53:34;;;;;;;29.23;16.10;;;;;;;-4.21;70.82;102183.69;1772681;80;21405;-57
2023/02/07 04:56:45;;;;;;;24.37;14.75;;;;;;;-4.24;70.82;102189.11;1771746;80;21272;-56
2023/02/07 05:00:05;;;;;;;25.25;14.85;;;;;;;-4.26;70.85;102190.94;1771578;79;21912;-56
2023/02/07 05:03:26;;;;;;;26.80;15.10;;;;;;;-4.30;70.82;102202.64;1773375;80;21474;-56
2023/02/07 05:06:47;;;;;;;28.00;15.32;;;;;;;-4.33;70.86;102202.72;1771987;80;21237;-55
2023/02/07 05:10:11;;;;;;;27.93;14.30;;;;;;;-4.34;70.88;102203.17;1772988;79;21371;-57
2023/02/07 05:13:39;;;;;;;26.95;14.90;;;;;;;-4.16;71.02;102205.84;1858993;76;22642;-57
2023/02/07 05:17:08;;;;;;;29.65;15.48;;;;;;;-4.18;70.97;102202.32;1708057;83;21829;-56
2023/02/07 05:20:17;;;;;;;28.20;15.75;;;;;;;-4.14;70.94;102209.36;1765272;80;21165;-57
2023/02/07 05:23:38;;;;;;;26.48;15.32;;;;;;;-4.16;70.85;102208.07;1765679;79;21832;-57
2023/02/07 05:27:01;;;;;;;28.60;15.98;;;;;;;-4.17;70.84;102213.45;1765083;81;21327;-57
2023/02/07 05:30:29;;;;;;;30.55;15.78;;;;;;;-4.15;70.94;102211.15;1772527;79;21772;-55
2023/02/07 05:33:51;;;;;;;28.50;15.88;;;;;;;-4.09;70.87;102218.16;1772430;79;21769;-57
2023/02/07 05:37:09;;;;;;;29.60;16.20;;;;;;;-4.13;70.70;102225.36;1734534;82;21149;-58
2023/02/07 05:40:29;;;;;;;26.20;16.48;;;;;;;-4.10;70.73;102228.41;1751753;81;21812;-55
2023/02/07 05:43:46;;;;;;;25.30;14.98;;;;;;;-4.12;70.55;102239.14;1740783;81;21860;-58
2023/02/07 05:47:15;;;;;;;33.35;17.82;;;;;;;-4.17;70.50;102234.84;1768515;80;21240;-56
2023/02/07 05:50:29;;;;;;;31.42;17.62;;;;;;;-4.13;70.62;102236.51;1765115;80;21894;-58
2023/02/07 05:57:58;;;;;;;41.53;19.35;;;;;;;-3.95;70.74;102232.05;1741319;81;21220;-57
2023/02/07 06:04:52;;;;;;;52.53;25.12;;;;;;;-3.81;70.67;102243.26;1738135;78;21225;-59
2023/02/07 06:26:28;;;;;;;64.35;28.83;;;;;;;-2.95;70.78;102229.66;1748591;76;21246;-56
2023/02/07 06:29:55;;;;;;;55.33;25.85;;;;;;;-2.69;70.74;102236.44;1870954;76;22476;-59
2023/02/07 06:33:06;;;;;;;49.35;24.55;;;;;;;-2.63;70.75;102237.58;1797108;78;21243;-57
2023/02/07 09:07:42;;;;;;;26.20;11.85;;;;;;;-1.49;68.84;102293.24;1683006;81;21160;31
2023/02/07 09:11:08;;;;;;;25.55;12.20;;;;;;;-1.63;69.01;102299.09;1624973;82;21522;-59
2023/02/07 09:28:50;;;;;;;25.40;11.90;;;;;;;-1.42;69.47;102300.63;1835470;75;21713;-58
2023/02/07 09:50:15;;;;;;;29.37;14.05;;;;;;;-0.97;69.14;102268.98;1799605;74;21215;-58
2023/02/07 09:53:41;;;;;;;29.75;12.80;;;;;;;-1.05;69.08;102290.33;1785775;72;22102;-57
2023/02/07 10:00:27;;;;;;;29.67;12.35;;;;;;;-0.82;69.45;102294.38;1804669;74;21251;31
2023/02/07 10:18:43;;;;;;;61.30;27.00;;;;;;;-0.27;68.91;102298.08;1822767;76;21530;-56
2023/02/07 10:51:52;;;;;;;47.38;17.10;;;;;;;0.28;68.39;102307.01;1762513;77;21191;-59
2023/02/07 10:55:12;;;;;;;38.85;15.50;;;;;;;0.34;68.15;102313.94;1712910;79;21330;-57
2023/02/07 10:58:36;;;;;;;31.00;14.45;;;;;;;0.31;68.00;102319.00;1626568;83;21907;-57
2023/02/07 11:01:58;;;;;;;51.35;17.62;;;;;;;0.39;67.91;102318.67;1628419;84;21265;-57
2023/02/07 11:05:40;;;;;;;37.60;17.73;;;;;;;0.35;67.66;102304.45;1640574;83;21741;-57
2023/02/07 11:09:29;;;;;;;39.25;15.70;;;;;;;0.15;67.45;102317.87;1618361;84;22169;-57
2023/02/07 11:13:08;;;;;;;34.15;15.03;;;;;;;0.19;67.68;102318.13;1593208;86;21409;-56
2023/02/07 11:16:38;;;;;;;37.95;15.83;;;;;;;0.28;67.69;102318.23;1649192;83;21825;-57
2023/02/07 11:20:03;;;;;;;38.02;15.63;;;;;;;0.45;67.77;102321.98;1665009;81;22078;-57
2023/02/07 11:23:29;;;;;;;49.03;16.40;;;;;;;0.55;67.61;102319.32;1633806;84;21249;-57
2023/02/07 11:27:11;;;;;;;52.38;18.07;;;;;;;0.25;67.16;102324.64;1608203;82;21425;-56
2023/02/07 11:30:30;;;;;;;65.03;21.75;;;;;;;0.03;67.01;102323.27;1585431;84;21436;-56
2023/02/07 11:34:08;;;;;;;34.67;14.03;;;;;;;0.05;67.15;102325.91;1861753;76;22214;-57
2023/02/07 11:38:06;;;;;;;56.63;19.52;;;;;;;-0.21;66.96;102322.05;1775261;79;21248;-57
2023/02/07 11:41:50;;;;;;;26.97;12.20;;;;;;;-0.25;67.39;102332.50;1876655;74;22163;-58
2023/02/07 11:45:29;;;;;;;40.63;18.00;;;;;;;-0.26;67.31;102328.07;1841748;77;21180;-57
2023/02/07 11:52:57;;;;;;;43.95;17.90;;;;;;;-0.06;67.52;102330.84;1759140;78;21229;-59
2023/02/07 11:56:16;;;;;;;38.48;16.55;;;;;;;-0.07;67.38;102321.02;1693276;80;21465;-60
2023/02/07 12:18:33;;;;;;;34.70;15.90;;;;;;;0.08;67.19;102336.55;1811001;77;21541;-59
2023/02/07 12:23:01;;;;;;;40.88;16.62;;;;;;;0.09;67.04;102336.97;1874387;76;22242;-58
2023/02/07 12:52:54;;;;;;;35.25;15.65;;;;;;;-0.27;66.68;102346.52;1703181;80;21239;-59
2023/02/07 13:09:16;;;;;;;30.80;13.68;;;;;;;0.21;67.01;102367.43;1719255;78;22320;-58
2023/02/07 13:12:59;;;;;;;29.90;14.15;;;;;;;0.11;66.78;102369.22;1701838;79;21264;-57
2023/02/07 13:23:13;;;;;;;26.20;14.73;;;;;;;0.05;66.74;102381.09;1672453;80;21235;-58
2023/02/07 13:45:32;;;;;;;29.60;14.63;;;;;;;-0.40;66.62;102408.44;1733958;78;21790;-59
2023/02/07 13:48:47;;;;;;;28.07;13.95;;;;;;;-0.14;67.04;102413.24;1731092;78;21542;-60
2023/02/07 13:52:05;;;;;;;30.48;14.95;;;;;;;0.19;67.12;102411.53;1730891;78;21311;-60
2023/02/07 14:04:54;;;;;;;28.62;15.00;;;;;;;0.22;66.38;102420.83;1729354;79;21742;-56
2023/02/07 14:12:09;;;;;;;36.00;18.87;;;;;;;-0.02;66.45;102445.55;1736084;79;21585;-60
2023/02/07 14:15:35;;;;;;;31.37;15.72;;;;;;;-0.04;66.30;102442.03;1738611;77;21915;-60
2023/02/07 14:22:53;;;;;;;45.40;20.80;;;;;;;-0.37;66.18;102442.84;1705362;80;21390;-58
2023/02/07 14:26:45;;;;;;;29.50;16.15;;;;;;;-0.31;66.26;102456.06;1817451;76;22353;-59
2023/02/07 14:30:23;;;;;;;49.75;22.45;;;;;;;-0.46;66.11;102465.17;1740473;80;21275;-59
2023/02/07 14:34:57;;;;;;;26.12;13.45;;;;;;;-0.71;65.95;102465.14;1762750;80;22054;-57
2023/02/07 14:39:14;;;;;;;28.80;15.50;;;;;;;-0.94;65.93;102472.25;1766518;81;21177;-57
2023/02/07 14:42:56;;;;;;;27.30;14.35;;;;;;;-1.17;65.92;102482.42;1741413;81;21516;-59
2023/02/07 14:46:42;;;;;;;30.50;15.93;;;;;;;-1.52;65.78;102488.92;1759558;80;21220;-58
2023/02/07 14:50:35;;;;;;;38.05;17.07;;;;;;;-1.71;66.01;102498.48;1755309;80;21213;-59
2023/02/07 14:54:44;;;;;;;28.17;14.87;;;;;;;-1.73;66.19;102500.32;1762949;80;21834;-59
2023/02/07 14:58:25;;;;;;;38.85;19.10;;;;;;;-1.95;66.14;102500.55;1772190;80;21212;-58
2023/02/07 15:01:51;;;;;;;34.18;18.90;;;;;;;-1.87;66.39;102513.77;1838634;76;22240;-59
2023/02/07 15:05:42;;;;;;;36.05;17.48;;;;;;;-1.96;66.30;102516.24;1768856;78;21517;-59
2023/02/07 15:09:12;;;;;;;33.65;16.55;;;;;;;-2.03;66.37;102525.38;1708620;82;21212;-59
2023/02/07 15:12:37;;;;;;;39.98;17.60;;;;;;;-2.15;66.30;102527.09;1700603;82;21213;-59
2023/02/07 15:16:17;;;;;;;33.58;16.48;;;;;;;-2.21;66.33;102529.95;1695815;83;21243;-58
2023/02/07 15:19:45;;;;;;;29.40;15.18;;;;;;;-2.26;66.35;102532.33;1740497;78;21172;-59
2023/02/07 15:23:20;;;;;;;33.53;16.77;;;;;;;-2.29;66.42;102530.63;1668827;84;21227;-57
2023/02/07 15:27:05;;;;;;;31.60;16.05;;;;;;;-2.30;66.50;102542.73;1654220;86;21320;-59
2023/02/07 15:30:43;;;;;;;29.70;15.63;;;;;;;-2.35;66.42;102540.19;1621107;87;21460;-59
2023/02/07 15:34:32;;;;;;;27.98;14.23;;;;;;;-2.32;66.58;102541.44;1658174;85;21723;-58
2023/02/07 15:37:58;;;;;;;31.23;16.52;;;;;;;-2.27;66.61;102554.27;1626825;86;21236;-58
2023/02/07 15:41:21;;;;;;;33.60;15.20;;;;;;;-2.29;66.57;102554.76;1628512;86;21807;-59
2023/02/07 15:44:41;;;;;;;30.10;13.80;;;;;;;-2.26;66.58;102558.70;1632220;86;21814;-57
2023/02/07 15:48:14;;;;;;;43.80;20.23;;;;;;;-2.28;66.47;102568.58;1645392;86;21230;-58
2023/02/07 15:51:44;;;;;;;44.30;17.53;;;;;;;-2.37;66.41;102581.35;1650809;86;21289;-58
2023/02/07 15:55:22;;;;;;;42.10;19.87;;;;;;;-2.43;66.34;102581.07;1657492;85;21297;-58
2023/02/07 15:59:25;;;;;;;55.10;20.32;;;;;;;-2.53;66.30;102586.23;1658619;85;21237;-58
2023/02/07 16:11:24;;;;;;;70.83;24.85;;;;;;;-2.67;66.51;102604.48;1774454;80;21189;-60
2023/02/07 16:15:08;;;;;;;62.98;22.45;;;;;;;-2.63;66.47;102609.31;1767193;80;21264;-57
2023/02/07 16:19:46;;;;;;;78.10;24.82;;;;;;;-2.63;66.48;102612.84;1753515;81;21217;-58
2023/02/07 16:23:18;;;;;;;63.83;22.20;;;;;;;-2.57;66.54;102623.45;1751610;81;21240;-57
2023/02/07 16:26:52;;;;;;;69.47;24.12;;;;;;;-2.47;66.55;102622.27;1810452;76;22612;-59
2023/02/07 16:30:17;;;;;;;61.35;23.02;;;;;;;-2.46;66.63;102626.73;1722935;80;21692;-59
2023/02/07 16:44:17;;;;;;;58.30;24.85;;;;;;;-2.58;66.15;102653.83;1802171;78;28109;-59
2023/02/07 16:47:47;;;;;;;57.05;22.77;;;;;;;-2.63;66.08;102661.58;1782756;80;21370;-57
2023/02/07 16:51:34;;;;;;;45.12;18.52;;;;;;;-2.59;66.16;102665.48;1782893;80;21452;-58
2023/02/07 16:56:03;;;;;;;40.73;17.60;;;;;;;-2.53;66.23;102674.72;1782190;80;21310;-57
2023/02/07 16:59:32;;;;;;;55.28;21.48;;;;;;;-2.43;66.32;102674.92;1782829;80;21200;-58
2023/02/07 17:02:57;;;;;;;38.73;17.05;;;;;;;-2.48;66.08;102682.64;1729804;81;21251;-57
2023/02/07 17:06:28;;;;;;;41.73;16.87;;;;;;;-2.53;66.10;102691.25;1714424;80;21738;-59
2023/02/07 17:09:50;;;;;;;35.35;16.45;;;;;;;-2.52;66.11;102697.06;1743237;82;21666;-58
2023/02/07 17:13:37;;;;;;;31.87;15.70;;;;;;;-2.53;66.07;102693.48;1677922;84;21225;-59
2023/02/07 17:16:58;;;;;;;33.75;14.10;;;;;;;-2.51;66.08;102697.02;1705294;84;21431;-59
2023/02/07 17:20:20;;;;;;;40.00;17.35;;;;;;;-2.49;66.16;102700.52;1714685;82;21256;-58
2023/02/07 17:24:10;;;;;;;30.08;15.58;;;;;;;-2.44;66.17;102704.46;1701778;84;21213;-58
2023/02/07 17:27:59;;;;;;;33.05;15.35;;;;;;;-2.40;66.18;102712.84;1659685;85;21291;-58
2023/02/07 17:42:03;;;;;;;23.75;13.60;;;;;;;-2.41;65.99;102724.50;1785739;77;22299;-58
2023/02/07 17:45:22;;;;;;;27.13;14.45;;;;;;;-2.42;66.07;102731.65;1742605;78;21832;-59
2023/02/07 17:48:54;;;;;;;31.05;13.72;;;;;;;-2.38;66.08;102740.02;1723401;80;21217;-58
2023/02/07 17:52:15;;;;;;;27.73;15.15;;;;;;;-2.38;65.97;102752.09;1763112;80;21205;-58
2023/02/07 17:55:39;;;;;;;26.87;14.05;;;;;;;-2.50;65.79;102741.67;1706011;81;21256;-57
2023/02/07 17:59:36;;;;;;;27.32;13.85;;;;;;;-2.51;65.73;102760.03;1821222;76;22915;-57
2023/02/07 18:03:02;;;;;;;29.27;15.28;;;;;;;-2.51;65.81;102765.39;1877656;76;22241;-58
2023/02/07 18:06:24;;;;;;;30.50;14.68;;;;;;;-2.57;65.80;102756.16;1767012;81;21379;-58
2023/02/07 18:10:24;;;;;;;24.85;13.78;;;;;;;-2.69;65.56;102786.34;1786414;79;21747;-58
2023/02/07 18:13:48;;;;;;;24.87;13.78;;;;;;;-2.81;65.57;102791.98;1804853;79;21228;-57
2023/02/07 18:17:20;;;;;;;34.85;15.63;;;;;;;-2.82;65.68;102795.11;1804680;79;21307;-59
2023/02/07 18:20:43;;;;;;;28.05;13.88;;;;;;;-2.81;65.65;102804.05;1804083;79;21264;-59
2023/02/07 18:24:21;;;;;;;26.93;13.05;;;;;;;-2.77;65.77;102809.30;1790498;79;21706;-59
2023/02/07 22:26:47;;;;;;;92.05;38.58;;;;;;;-2.72;65.77;102807.86;1654530;84;21880;-58
2023/02/07 22:40:58;;;;;;;64.65;30.90;;;;;;;-7.11;64.85;103084.06;1831890;76;22245;-58
2023/02/07 22:49:44;;;;;;;60.33;28.60;;;;;;;-7.11;65.02;103093.80;1771520;79;21190;-58
2023/02/07 22:53:27;;;;;;;59.53;30.70;;;;;;;-7.06;65.08;103090.71;1771550;81;21175;-58
2023/02/07 22:57:06;;;;;;;69.27;32.63;;;;;;;-7.08;65.04;103108.01;1649943;86;21200;-58
2023/02/07 23:00:47;;;;;;;70.15;32.58;;;;;;;-7.09;64.96;103114.66;1643941;86;21221;-57
2023/02/07 23:04:21;;;;;;;60.15;30.70;;;;;;;-7.12;64.96;103114.66;1663299;84;21275;-59
2023/02/07 23:11:37;;;;;;;64.87;29.57;;;;;;;-7.19;64.94;103116.42;1886027;76;22231;-57
2023/02/07 23:14:58;;;;;;;56.85;27.22;;;;;;;-7.26;64.92;103119.08;1845648;77;21212;-60
2023/02/07 23:18:30;;;;;;;66.55;31.00;;;;;;;-7.29;64.87;103117.28;1845459;78;21386;-58
2023/02/07 23:21:47;;;;;;;58.78;28.80;;;;;;;-7.35;64.82;103129.68;1845841;78;21729;-58
2023/02/07 23:25:01;;;;;;;58.78;27.22;;;;;;;-7.45;64.77;103130.56;1808760;78;21617;-57
2023/02/07 23:28:39;;;;;;;55.98;27.67;;;;;;;-7.42;64.91;103135.89;1824886;77;22043;-59
2023/02/07 23:32:06;;;;;;;52.33;26.42;;;;;;;-7.39;64.96;103134.56;1845833;77;21214;-59
2023/02/07 23:35:33;;;;;;;62.80;27.98;;;;;;;-7.39;64.95;103134.56;1845516;78;21345;-57
2023/02/07 23:39:01;;;;;;;52.25;29.00;;;;;;;-7.39;64.98;103139.89;1845579;77;21216;-59
2023/02/07 23:42:17;;;;;;;60.17;26.33;;;;;;;-7.45;64.84;103142.53;1843749;77;21665;-57
2023/02/07 23:45:41;;;;;;;46.83;24.92;;;;;;;-7.44;64.81;103148.28;1836316;76;22238;-57
2023/02/07 23:49:02;;;;;;;62.38;29.02;;;;;;;-7.53;64.86;103145.14;1774329;79;21421;-57
2023/02/07 23:52:17;;;;;;;60.78;29.45;;;;;;;-7.53;64.92;103150.92;1772131;80;21339;-58
2023/02/07 23:55:32;;;;;;;56.08;26.57;;;;;;;-7.46;65.02;103161.58;1773617;79;21706;-58
2023/02/07 23:58:59;;;;;;;58.90;24.85;;;;;;;-7.47;64.97;103154.93;1771643;80;21153;-58
